createdAt,value
2023-03-29T00:02:18.401Z,1.75
2023-03-29T00:05:23.130Z,2.30
2023-03-29T00:08:27.070Z,2.30
2023-03-29T00:11:31.034Z,2.42
2023-03-29T00:14:34.315Z,2.30
2023-03-29T00:17:37.778Z,1.70
2023-03-29T00:20:41.098Z,1.92
2023-03-29T00:23:44.404Z,1.60
2023-03-29T00:26:49.673Z,1.92
2023-03-29T00:29:53.050Z,2.00
2023-03-29T00:32:56.357Z,1.92
2023-03-29T00:35:59.699Z,2.20
2023-03-29T00:39:02.979Z,2.65
2023-03-29T00:42:06.345Z,2.42
2023-03-29T00:45:13.032Z,1.97
2023-03-29T00:48:23.998Z,1.52
2023-03-29T00:51:30.457Z,1.67
2023-03-29T00:54:34.520Z,1.05
2023-03-29T00:57:39.689Z,1.30
2023-03-29T01:00:55.437Z,1.08
2023-03-29T01:04:04.425Z,1.10
2023-03-29T01:07:18.843Z,1.93
2023-03-29T01:10:49.392Z,1.77
2023-03-29T01:14:02.786Z,1.85
2023-03-29T01:17:06.762Z,1.80
2023-03-29T01:20:24.839Z,1.60
2023-03-29T01:23:54.233Z,1.60
2023-03-29T01:27:19.409Z,1.00
2023-03-29T01:30:29.857Z,0.75
2023-03-29T01:33:46.272Z,0.80
2023-03-29T01:37:00.302Z,0.70
2023-03-29T01:40:05.345Z,0.83
2023-03-29T01:43:20.976Z,1.13
2023-03-29T01:46:45.043Z,1.30
2023-03-29T01:50:06.554Z,1.37
2023-03-29T01:53:24.846Z,1.38
2023-03-29T01:56:29.902Z,1.42
2023-03-29T01:59:37.022Z,1.52
2023-03-29T02:02:43.779Z,1.80
2023-03-29T02:05:47.336Z,1.40
2023-03-29T02:08:53.087Z,1.60
2023-03-29T02:12:00.403Z,1.63
2023-03-29T02:15:10.931Z,2.08
2023-03-29T02:18:17.833Z,1.95
2023-03-29T02:21:34.181Z,1.80
2023-03-29T02:24:40.887Z,1.88
2023-03-29T02:27:45.492Z,2.00
2023-03-29T02:31:22.470Z,1.70
2023-03-29T02:34:38.919Z,1.45
2023-03-29T02:37:47.736Z,1.40
2023-03-29T02:40:52.927Z,1.83
2023-03-29T02:43:58.479Z,2.00
2023-03-29T02:47:19.621Z,2.63
2023-03-29T02:50:25.680Z,2.08
2023-03-29T02:53:39.210Z,2.30
2023-03-29T02:56:54.457Z,2.10
2023-03-29T02:59:58.845Z,2.25
2023-03-29T03:03:03.269Z,2.33
2023-03-29T03:06:06.844Z,1.90
2023-03-29T03:09:10.208Z,2.45
2023-03-29T03:12:16.778Z,1.80
2023-03-29T03:15:20.989Z,2.10
2023-03-29T03:18:24.263Z,1.88
2023-03-29T03:21:30.429Z,1.80
2023-03-29T03:24:36.612Z,2.27
2023-03-29T03:27:39.967Z,2.30
2023-03-29T03:30:43.807Z,2.17
2023-03-29T03:34:26.381Z,2.58
2023-03-29T03:37:33.367Z,2.28
2023-03-29T03:40:36.779Z,2.20
2023-03-29T03:43:42.958Z,2.55
2023-03-29T03:46:47.298Z,2.40
2023-03-29T03:49:51.492Z,2.10
2023-03-29T03:52:56.793Z,2.03
2023-03-29T03:56:02.174Z,2.10
2023-03-29T03:59:10.905Z,2.20
2023-03-29T04:02:24.093Z,1.80
2023-03-29T04:05:27.297Z,1.65
2023-03-29T04:08:32.058Z,1.73
2023-03-29T04:11:49.774Z,2.05
2023-03-29T04:14:53.171Z,2.58
2023-03-29T04:17:59.283Z,2.43
2023-03-29T04:21:07.944Z,3.35
2023-03-29T04:24:11.991Z,3.17
2023-03-29T04:27:18.444Z,2.53
2023-03-29T04:30:21.959Z,2.60
2023-03-29T04:34:00.792Z,2.97
2023-03-29T04:37:10.575Z,2.55
2023-03-29T04:40:15.099Z,3.55
2023-03-29T04:43:34.547Z,3.67
2023-03-29T04:46:46.913Z,3.95
2023-03-29T04:50:14.076Z,2.67
2023-03-29T04:53:21.120Z,2.78
2023-03-29T04:56:26.451Z,2.40
2023-03-29T04:59:52.638Z,2.83
2023-03-29T05:03:14.712Z,2.88
2023-03-29T05:06:35.482Z,2.90
2023-03-29T05:09:39.133Z,3.30
2023-03-29T05:12:42.598Z,3.30
2023-03-29T05:15:46.056Z,3.28
2023-03-29T05:18:49.542Z,3.28
2023-03-29T05:21:53.248Z,4.00
2023-03-29T05:24:59.473Z,3.55
2023-03-29T05:28:04.154Z,3.05
2023-03-29T05:31:08.408Z,3.07
2023-03-29T05:34:13.879Z,3.10
2023-03-29T05:37:22.575Z,3.10
2023-03-29T05:40:35.820Z,3.47
2023-03-29T05:44:05.059Z,3.10
2023-03-29T05:47:08.899Z,3.60
2023-03-29T05:50:12.425Z,3.35
2023-03-29T05:53:17.135Z,3.40
2023-03-29T05:56:22.552Z,3.75
2023-03-29T05:59:29.778Z,5.75
2023-03-29T06:02:36.850Z,2.93
2023-03-29T06:05:40.451Z,3.85
2023-03-29T06:08:45.001Z,3.42
2023-03-29T06:12:01.782Z,4.18
2023-03-29T06:15:35.500Z,3.77
2023-03-29T06:18:42.416Z,3.58
2023-03-29T06:21:45.680Z,3.33
2023-03-29T06:24:53.315Z,3.95
2023-03-29T06:28:03.885Z,3.10
2023-03-29T06:31:10.230Z,3.38
2023-03-29T06:34:17.452Z,3.40
2023-03-29T06:37:34.011Z,3.20
2023-03-29T06:41:08.340Z,3.20
2023-03-29T06:44:47.881Z,3.33
2023-03-29T06:47:55.802Z,3.60
2023-03-29T06:51:00.241Z,3.60
2023-03-29T06:54:06.045Z,3.80
2023-03-29T06:57:10.602Z,3.63
2023-03-29T07:00:19.222Z,4.28
2023-03-29T07:03:45.341Z,2.70
2023-03-29T07:07:01.350Z,3.13
2023-03-29T07:10:08.397Z,2.72
2023-03-29T07:13:30.600Z,2.92
2023-03-29T07:16:37.692Z,2.90
2023-03-29T07:20:01.618Z,2.78
2023-03-29T07:23:17.122Z,2.30
2023-03-29T07:26:30.025Z,2.33
2023-03-29T07:29:36.133Z,2.10
2023-03-29T07:32:41.456Z,1.73
2023-03-29T07:36:08.741Z,1.63
2023-03-29T07:39:13.696Z,2.75
2023-03-29T07:42:20.490Z,1.50
2023-03-29T07:45:28.289Z,1.20
2023-03-29T07:48:50.741Z,1.40
2023-03-29T07:51:55.122Z,1.70
2023-03-29T07:55:00.359Z,3.95
2023-03-29T07:58:17.180Z,1.77
2023-03-29T08:01:21.759Z,1.63
2023-03-29T08:04:43.145Z,1.23
2023-03-29T08:07:52.012Z,1.58
2023-03-29T08:11:21.622Z,1.35
2023-03-29T08:14:33.690Z,1.70
2023-03-29T08:17:50.687Z,1.50
2023-03-29T08:20:54.176Z,1.85
2023-03-29T08:24:03.833Z,1.77
2023-03-29T08:27:19.522Z,1.47
2023-03-29T08:30:22.878Z,1.98
2023-03-29T08:33:27.225Z,2.15
2023-03-29T08:36:48.284Z,1.80
2023-03-29T08:40:01.481Z,2.55
2023-03-29T08:43:28.713Z,2.00
2023-03-29T08:47:26.390Z,1.80
2023-03-29T08:50:48.049Z,1.90
2023-03-29T08:54:00.480Z,1.55
2023-03-29T08:57:17.694Z,1.57
2023-03-29T09:00:32.931Z,1.52
2023-03-29T09:04:09.915Z,1.15
2023-03-29T09:07:42.597Z,1.30
2023-03-29T09:11:16.502Z,0.82
2023-03-29T09:14:45.376Z,0.97
2023-03-29T09:18:02.998Z,0.80
2023-03-29T09:21:33.659Z,0.90
2023-03-29T09:25:03.711Z,0.90
2023-03-29T09:28:19.251Z,0.95
2023-03-29T09:31:37.261Z,1.03
2023-03-29T09:34:49.248Z,1.10
2023-03-29T09:37:57.805Z,1.17
2023-03-29T09:41:08.873Z,2.10
2023-03-29T09:44:30.163Z,1.00
2023-03-29T09:47:59.025Z,0.70
2023-03-29T09:51:07.128Z,0.73
2023-03-29T09:54:12.612Z,0.93
2023-03-29T09:57:34.728Z,1.00
2023-03-29T10:00:40.399Z,1.00
2023-03-29T10:03:50.754Z,1.03
2023-03-29T10:06:54.141Z,1.00
2023-03-29T10:09:58.506Z,1.20
2023-03-29T10:13:06.960Z,0.88
2023-03-29T10:16:26.183Z,1.00
2023-03-29T10:19:34.661Z,0.70
2023-03-29T10:22:40.604Z,0.70
2023-03-29T10:25:44.543Z,1.00
2023-03-29T10:28:47.984Z,1.30
2023-03-29T10:31:51.854Z,0.80
2023-03-29T10:34:55.492Z,0.90
2023-03-29T10:38:03.149Z,0.90
2023-03-29T10:41:15.878Z,0.80
2023-03-29T10:44:33.166Z,0.90
2023-03-29T10:47:36.741Z,0.73
2023-03-29T10:50:40.611Z,0.80
2023-03-29T10:53:44.651Z,0.88
2023-03-29T10:56:56.261Z,1.00
2023-03-29T11:00:09.714Z,0.90
2023-03-29T11:03:21.636Z,1.05
2023-03-29T11:06:57.032Z,0.73
2023-03-29T11:10:26.168Z,1.00
2023-03-29T11:14:04.852Z,0.68
2023-03-29T11:17:35.895Z,0.90
2023-03-29T11:20:47.538Z,0.73
2023-03-29T11:24:24.578Z,0.70
2023-03-29T11:27:55.544Z,0.77
2023-03-29T11:31:17.183Z,0.80
2023-03-29T11:34:39.896Z,0.82
2023-03-29T11:37:51.602Z,0.85
2023-03-29T11:41:18.792Z,0.80
2023-03-29T11:44:32.863Z,0.70
2023-03-29T11:47:41.221Z,0.80
2023-03-29T11:51:03.767Z,1.00
2023-03-29T11:54:20.762Z,0.88
2023-03-29T11:57:36.619Z,0.83
2023-03-29T12:00:46.476Z,0.90
2023-03-29T12:03:52.369Z,0.80
2023-03-29T12:07:42.790Z,1.20
2023-03-29T12:11:36.549Z,0.63
2023-03-29T12:14:48.285Z,0.70
2023-03-29T12:18:03.160Z,0.95
2023-03-29T12:21:12.997Z,1.10
2023-03-29T12:24:19.416Z,1.25
2023-03-29T12:27:37.497Z,0.77
2023-03-29T12:31:05.733Z,0.80
2023-03-29T12:34:20.840Z,0.80
2023-03-29T12:37:47.342Z,0.60
2023-03-29T12:41:24.889Z,0.73
2023-03-29T12:44:57.429Z,0.70
2023-03-29T12:48:03.429Z,0.60
2023-03-29T12:51:18.328Z,1.27
2023-03-29T12:54:28.488Z,0.80
2023-03-29T12:57:56.501Z,0.80
2023-03-29T13:01:32.321Z,0.60
2023-03-29T13:04:56.812Z,0.53
2023-03-29T13:08:10.619Z,0.80
2023-03-29T13:11:29.261Z,0.70
2023-03-29T13:14:35.653Z,0.70
2023-03-29T13:18:16.186Z,0.70
2023-03-29T13:21:19.665Z,1.00
2023-03-29T13:24:37.967Z,0.80
2023-03-29T13:27:59.584Z,1.00
2023-03-29T13:31:27.751Z,1.05
2023-03-29T13:35:00.219Z,0.73
2023-03-29T13:38:18.772Z,0.60
2023-03-29T13:41:28.951Z,1.05
2023-03-29T13:44:47.761Z,0.85
2023-03-29T13:48:20.779Z,0.60
2023-03-29T13:51:42.947Z,0.70
2023-03-29T13:55:08.669Z,1.60
2023-03-29T13:58:25.554Z,0.90
2023-03-29T14:01:50.653Z,0.75
2023-03-29T14:04:54.541Z,0.80
2023-03-29T14:08:07.281Z,0.85
2023-03-29T14:11:24.454Z,0.60
2023-03-29T14:14:30.317Z,0.77
2023-03-29T14:17:36.418Z,0.73
2023-03-29T14:20:45.908Z,0.85
2023-03-29T14:23:57.412Z,0.70
2023-03-29T14:27:03.930Z,0.70
2023-03-29T14:30:27.866Z,1.30
2023-03-29T14:33:38.149Z,0.90
2023-03-29T14:36:44.223Z,0.60
2023-03-29T14:39:47.816Z,0.80
2023-03-29T14:42:51.459Z,0.80
2023-03-29T14:45:55.099Z,0.88
2023-03-29T14:48:58.882Z,0.90
2023-03-29T14:52:02.652Z,0.40
2023-03-29T14:55:07.195Z,1.02
2023-03-29T14:58:34.409Z,0.60
2023-03-29T15:01:44.877Z,0.80
2023-03-29T15:04:56.442Z,0.98
2023-03-29T15:08:00.792Z,1.10
2023-03-29T15:11:12.822Z,1.10
2023-03-29T15:14:18.997Z,0.93
2023-03-29T15:17:47.712Z,0.80
2023-03-29T15:20:54.373Z,0.70
2023-03-29T15:24:00.637Z,0.80
2023-03-29T15:27:18.643Z,0.85
2023-03-29T15:30:34.567Z,1.63
2023-03-29T15:33:39.951Z,1.20
2023-03-29T15:36:47.460Z,1.27
2023-03-29T15:39:51.646Z,1.15
2023-03-29T15:42:55.692Z,0.50
2023-03-29T15:45:59.144Z,2.60
2023-03-29T15:49:03.076Z,1.40
2023-03-29T15:52:06.738Z,1.30
2023-03-29T15:58:20.073Z,0.88
2023-03-29T16:01:37.588Z,1.13
2023-03-29T16:04:41.421Z,1.17
2023-03-29T16:07:44.704Z,1.20
2023-03-29T16:10:49.187Z,1.25
2023-03-29T16:13:53.149Z,0.90
2023-03-29T16:16:59.526Z,1.30
2023-03-29T16:20:04.902Z,1.40
2023-03-29T16:23:11.997Z,2.30
2023-03-29T16:26:18.563Z,2.28
2023-03-29T16:29:22.111Z,1.45
2023-03-29T16:32:25.706Z,1.03
2023-03-29T16:35:32.197Z,1.30
2023-03-29T16:38:35.972Z,0.90
2023-03-29T16:41:42.406Z,1.20
2023-03-29T16:44:48.135Z,1.00
2023-03-29T16:47:51.681Z,1.30
2023-03-29T16:50:55.111Z,1.30
2023-03-29T16:54:00.762Z,1.35
2023-03-29T16:57:04.177Z,0.98
2023-03-29T17:00:10.919Z,1.60
2023-03-29T17:03:14.562Z,1.77
2023-03-29T17:06:17.792Z,1.85
2023-03-29T17:09:21.239Z,1.25
2023-03-29T17:12:24.558Z,1.27
2023-03-29T17:15:27.759Z,1.40
2023-03-29T17:18:31.371Z,1.23
2023-03-29T17:21:34.555Z,1.45
2023-03-29T17:24:37.780Z,1.45
2023-03-29T17:27:41.187Z,1.80
2023-03-29T17:30:47.303Z,1.95
2023-03-29T17:33:52.185Z,1.90
2023-03-29T17:36:56.338Z,1.27
2023-03-29T17:39:59.763Z,1.08
2023-03-29T17:43:03.263Z,1.25
2023-03-29T17:46:07.122Z,1.30
2023-03-29T17:49:10.404Z,1.50
2023-03-29T17:52:13.896Z,1.17
2023-03-29T17:55:17.945Z,1.08
2023-03-29T17:58:21.938Z,0.90
2023-03-29T18:01:32.675Z,1.38
2023-03-29T18:04:36.022Z,1.00
2023-03-29T18:07:39.511Z,1.20
2023-03-29T18:10:43.160Z,1.20
2023-03-29T18:13:46.618Z,1.50
2023-03-29T18:16:50.308Z,1.35
2023-03-29T18:19:54.559Z,1.10
2023-03-29T18:22:58.124Z,1.50
2023-03-29T18:26:03.727Z,1.90
2023-03-29T18:29:09.747Z,2.13
2023-03-29T18:32:14.541Z,2.08
2023-03-29T18:35:18.131Z,2.80
2023-03-29T18:38:23.069Z,2.17
2023-03-29T18:41:27.663Z,1.85
2023-03-29T18:44:34.169Z,1.90
2023-03-29T18:47:37.646Z,2.53
2023-03-29T18:50:47.046Z,3.17
2023-03-29T18:53:50.995Z,3.63
2023-03-29T18:56:54.832Z,5.28
2023-03-29T18:59:59.907Z,5.90
2023-03-29T19:03:03.492Z,7.13
2023-03-29T19:06:07.952Z,7.00
2023-03-29T19:09:11.500Z,8.10
2023-03-29T19:12:15.467Z,7.53
2023-03-29T19:15:19.039Z,5.55
2023-03-29T19:18:23.013Z,4.35
2023-03-29T19:21:27.896Z,3.97
2023-03-29T19:24:31.324Z,4.20
2023-03-29T19:27:34.665Z,3.75
2023-03-29T19:30:38.334Z,3.60
2023-03-29T19:33:42.121Z,4.17
2023-03-29T19:36:46.079Z,3.88
2023-03-29T19:39:49.775Z,4.25
2023-03-29T19:42:53.064Z,3.20
2023-03-29T19:45:57.139Z,3.28
2023-03-29T19:49:02.626Z,3.00
2023-03-29T19:52:07.404Z,3.20
2023-03-29T19:55:11.095Z,3.20
2023-03-29T19:58:14.562Z,2.72
2023-03-29T20:01:21.479Z,2.72
2023-03-29T20:04:25.333Z,2.90
2023-03-29T20:07:29.235Z,3.10
2023-03-29T20:10:32.793Z,3.13
2023-03-29T20:13:41.474Z,2.83
2023-03-29T20:16:45.712Z,2.60
2023-03-29T20:19:49.049Z,3.10
2023-03-29T20:22:58.227Z,2.67
2023-03-29T20:26:02.282Z,2.88
2023-03-29T20:29:06.284Z,2.95
2023-03-29T20:32:09.532Z,2.80
2023-03-29T20:35:12.824Z,2.97
2023-03-29T20:38:16.379Z,3.10
2023-03-29T20:41:19.704Z,3.33
2023-03-29T20:44:26.284Z,3.15
2023-03-29T20:47:29.626Z,2.95
2023-03-29T20:50:32.885Z,3.20
2023-03-29T20:53:36.100Z,3.33
2023-03-29T20:56:42.351Z,3.10
2023-03-29T20:59:48.226Z,3.15
2023-03-29T21:02:52.662Z,3.00
2023-03-29T21:05:58.281Z,3.53
2023-03-29T21:09:01.698Z,2.80
2023-03-29T21:12:05.083Z,3.15
2023-03-29T21:15:10.325Z,3.20
2023-03-29T21:18:13.707Z,2.85
2023-03-29T21:21:17.008Z,2.50
2023-03-29T21:24:20.329Z,3.00
2023-03-29T21:27:23.587Z,3.28
2023-03-29T21:30:27.366Z,3.10
2023-03-29T21:33:31.732Z,3.08
2023-03-29T21:36:34.889Z,3.40
2023-03-29T21:39:38.616Z,3.78
2023-03-29T21:42:42.265Z,2.92
2023-03-29T21:45:49.737Z,3.00
2023-03-29T21:48:53.006Z,3.08
2023-03-29T21:51:56.852Z,3.30
2023-03-29T21:55:00.285Z,3.63
2023-03-29T21:58:04.821Z,3.40
2023-03-29T22:01:10.192Z,4.25
2023-03-29T22:04:22.582Z,5.07
2023-03-29T22:07:28.862Z,4.32
2023-03-29T22:10:33.641Z,4.95
2023-03-29T22:13:37.363Z,5.03
2023-03-29T22:16:40.711Z,5.32
2023-03-29T22:19:44.171Z,4.90
2023-03-29T22:22:49.892Z,4.65
2023-03-29T22:25:53.026Z,4.15
2023-03-29T22:28:57.434Z,4.72
2023-03-29T22:32:00.861Z,4.00
2023-03-29T22:35:04.900Z,4.07
2023-03-29T22:38:08.176Z,3.97
2023-03-29T22:41:12.254Z,3.85
2023-03-29T22:44:15.814Z,4.13
2023-03-29T22:47:19.020Z,3.67
2023-03-29T22:50:22.268Z,3.75
2023-03-29T22:53:26.099Z,4.05
2023-03-29T22:56:29.383Z,3.90
2023-03-29T22:59:32.597Z,3.63
2023-03-29T23:02:36.607Z,3.60
2023-03-29T23:05:40.025Z,3.40
2023-03-29T23:08:43.455Z,3.35
2023-03-29T23:11:46.634Z,3.33
2023-03-29T23:14:53.123Z,3.42
2023-03-29T23:17:56.425Z,3.67
2023-03-29T23:21:00.273Z,3.42
2023-03-29T23:24:03.893Z,3.30
2023-03-29T23:27:07.777Z,3.38
2023-03-29T23:30:11.839Z,3.10
2023-03-29T23:33:15.209Z,3.63
2023-03-29T23:36:19.698Z,3.35
2023-03-29T23:39:25.138Z,3.30
2023-03-29T23:42:30.135Z,3.40
2023-03-29T23:45:35.712Z,3.50
2023-03-29T23:48:39.245Z,3.08
2023-03-29T23:51:44.989Z,3.50
2023-03-29T23:54:49.520Z,3.40
2023-03-29T23:57:56.614Z,3.40
